Glenwood, NJ (07418)

5:46 PM EDT on July 30, 2016 (GMT -0400)
APRSWXNET | | Change Station
Active Advisory: Areal Flood Advisory

Elev 458 ft 41.22 °N, 74.49 °W | Updated 47 minutes ago

Overcast
Overcast
73 °F
Feels Like 73 °F
N
0
Wind Variable Wind from WSW
Gusts 0.0 mph

Today
High -- | Low -- °F
--% Chance of Precip.
Yesterday
High -- | Low -- °F
Precip. -- in
Pressure 30.05 in
Visibility 2.5 miles
Clouds Overcast 3700 ft
Heat Index 73 °F
Dew Point 67 °F
Humidity 81%
Rainfall in
Snow Depth Not available.
5:51 AM 8:16 PM
Waning Crescent, 11% visible
SPECI KFWN 302138Z AUTO 00000KT 2 1/2SM RA BR OVC037 21/21 A3005 RMK AO2 LTG DSNT N AND NW P0013 T02110206
Pressure 30.05 in
Visibility 2.5 miles
Clouds Overcast 3700 ft
Heat Index 73 °F
Dew Point 67 °F
Humidity 81%
Rainfall in
Snow Depth Not available.
5:51 AM 8:16 PM
Waning Crescent, 11% visible
SPECI KFWN 302138Z AUTO 00000KT 2 1/2SM RA BR OVC037 21/21 A3005 RMK AO2 LTG DSNT N AND NW P0013 T02110206

10-Day Weather Forecast

Almanac

Astronomy

Jul. 30, 2016 Rise Set
Actual Time
Civil Twilight
Nautical Twilight
Astronomical Twilight
Moon
Length of Visible Light
Length of Day
Tomorrow will be .
, % of the Moon is Illuminated

Today's Extremes

State Highs State Lows

Community

WunderPhotos

Upload Photos

1,928,657 photos uploaded!

WunderBlog® & News

Nearby

Air Quality

  Air Quality AQ Index Pollutant
Not available.

Snow Depth

Station Depth Elevation

Earthquake Activity

City Distance Mag. Time & Date
Minimum magnitude displayed is 2.5.

Coastal Water Temperatures

Place Temperature

Stations

Nearby Weather Stations

Station Location Temp. Windchill Dew Point Humidity Wind Precip. Elev Updated Type
                   

Watches & Warnings

Areal Flood Advisory
Issued: 3:45 PM EDT Jul. 30, 2016 – National Weather Service

The National Weather Service in Mount Holly NJ has issued a

* Flood Advisory for...
south central Sussex County in northwestern New Jersey...
northeastern Morris County in northern New Jersey...

* until 745 PM EDT

* at 344 PM EDT... Doppler radar indicated heavy rain due to an area
of showers and thunderstorms. This will cause poor drainage, low-
lying, urbanized or small stream flooding across portions of the
advised area. Up to two inches of rain can be expected, where the
heaviest rains fall, in about a one hour timeframe.

* Some locations that will experience flooding include...
Newton... Hopatcong... Kinnelon... Butler... Mount Arlington...
Riverdale... Andover... Lake telemark... Green Pond and Lake Mohawk.

Precautionary/preparedness actions...

Do not drive your vehicle into areas where the water covers the
roadway. The water depth may be too great to allow your car to cross
safely. Move to higher ground.


Lat... Lon 4092 7476 4104 7476 4108 7449 4104 7450
      4105 7445 4103 7442 4101 7437 4101 7435
      4100 7430 4098 7428


Kruzdlo